Time;durP1;ratioP1;P1;durP2;ratioP2;P2;SDS_P1;SDS_P2;PMS_P1;PMS_P2;Temp;Humidity;BMP_temperature;BMP_pressure;BME280_temperature;BME280_humidity;BME280_pressure;Samples;Min_cycle;Max_cycle;Signal;HPM_P1;HPM_P2
2023/04/23 00:00:35;;;;;;;9.75;6.47;;;10.00;92.40;;;;;;5089849;28;20028;-48
2023/04/23 00:03:14;;;;;;;9.40;6.53;;;10.00;92.30;;;;;;5073357;28;20025;-45
2023/04/23 00:05:42;;;;;;;9.10;6.57;;;10.00;92.40;;;;;;5080262;28;20032;-46
2023/04/23 00:08:15;;;;;;;9.88;6.15;;;10.00;92.30;;;;;;5092626;28;20028;-46
2023/04/23 00:10:42;;;;;;;9.45;5.13;;;10.00;92.10;;;;;;5076263;28;20024;-45
2023/04/23 00:13:09;;;;;;;9.77;6.60;;;10.00;91.90;;;;;;5087694;28;20028;-46
2023/04/23 00:15:36;;;;;;;6.15;5.30;;;9.90;91.90;;;;;;5070067;28;20032;-46
2023/04/23 00:18:03;;;;;;;7.85;5.18;;;10.00;92.00;;;;;;5083270;28;20147;-47
2023/04/23 00:20:30;;;;;;;10.13;4.57;;;9.90;91.70;;;;;;5084643;28;20020;-45
2023/04/23 00:22:55;;;;;;;10.85;5.30;;;9.90;91.70;;;;;;5056587;28;20036;-47
2023/04/23 00:25:21;;;;;;;11.75;5.35;;;9.90;91.70;;;;;;5091982;28;20024;-45
2023/04/23 00:27:47;;;;;;;6.72;4.45;;;9.90;91.70;;;;;;5083487;28;20032;-45
2023/04/23 00:30:18;;;;;;;6.70;4.45;;;9.90;91.60;;;;;;5055224;28;20020;-46
2023/04/23 00:32:46;;;;;;;13.20;5.50;;;9.90;91.60;;;;;;5080833;28;20740;-47
2023/04/23 00:35:12;;;;;;;7.03;4.22;;;9.80;91.30;;;;;;5091800;28;20442;-46
2023/04/23 00:37:39;;;;;;;11.18;4.95;;;9.80;91.30;;;;;;5088951;28;20039;-45
2023/04/23 00:40:06;;;;;;;5.60;4.05;;;9.70;91.10;;;;;;5075439;28;20040;-46
2023/04/23 00:42:44;;;;;;;7.95;4.50;;;9.70;91.20;;;;;;5073446;28;20429;-46
2023/04/23 00:45:12;;;;;;;10.07;4.32;;;9.50;90.90;;;;;;5091619;28;20039;-46
2023/04/23 00:47:39;;;;;;;8.45;4.60;;;9.50;91.00;;;;;;5078730;28;20488;-46
2023/04/23 00:50:08;;;;;;;5.20;4.15;;;9.40;91.10;;;;;;5079911;28;20043;-46
2023/04/23 00:52:37;;;;;;;8.68;4.82;;;9.40;91.30;;;;;;5065578;28;20036;-46
2023/04/23 00:55:07;;;;;;;9.38;5.22;;;9.40;91.30;;;;;;5072821;28;20128;-46
2023/04/23 00:57:35;;;;;;;7.10;4.82;;;9.40;91.40;;;;;;5073518;28;20033;-46
2023/04/23 01:00:05;;;;;;;5.82;4.75;;;9.40;91.50;;;;;;5092047;28;20338;-48
2023/04/23 01:02:37;;;;;;;6.63;4.53;;;9.40;91.60;;;;;;5071358;28;20405;-46
2023/04/23 01:05:10;;;;;;;7.68;5.07;;;9.30;91.60;;;;;;5059522;28;20436;-47
2023/04/23 01:07:39;;;;;;;7.50;5.00;;;9.30;91.60;;;;;;5073797;28;20036;-45
2023/04/23 01:10:12;;;;;;;7.18;4.85;;;9.40;91.60;;;;;;5074492;28;20028;-46
2023/04/23 01:12:38;;;;;;;8.02;5.35;;;9.20;91.40;;;;;;5074284;28;20024;-48
2023/04/23 01:15:05;;;;;;;8.93;5.78;;;9.10;91.50;;;;;;5054693;28;20047;-46
2023/04/23 01:17:37;;;;;;;8.95;5.30;;;9.20;91.60;;;;;;5089066;28;20059;-45
2023/04/23 01:20:05;;;;;;;7.20;4.82;;;9.10;91.50;;;;;;5080669;28;20111;-45
2023/04/23 01:22:36;;;;;;;8.82;5.15;;;9.10;91.60;;;;;;5074560;28;20041;-44
2023/04/23 01:25:03;;;;;;;6.57;5.57;;;9.10;91.60;;;;;;5054672;28;20093;-45
2023/04/23 01:27:32;;;;;;;10.73;6.43;;;9.00;91.50;;;;;;5074695;28;20077;-46
2023/04/23 01:30:02;;;;;;;7.68;6.10;;;9.00;91.40;;;;;;5092905;28;20039;-46
2023/04/23 01:32:31;;;;;;;10.25;7.70;;;8.90;91.40;;;;;;5090131;28;20028;-45
2023/04/23 01:35:03;;;;;;;11.40;6.68;;;8.90;91.50;;;;;;5059036;28;20029;-46
2023/04/23 01:37:31;;;;;;;13.65;9.80;;;8.90;91.50;;;;;;5070329;28;20039;-46
2023/04/23 01:40:01;;;;;;;13.70;9.43;;;8.80;91.30;;;;;;5077777;28;20043;-47
2023/04/23 01:42:27;;;;;;;15.63;10.68;;;8.90;91.50;;;;;;5067159;28;20041;-47
2023/04/23 01:44:54;;;;;;;13.13;10.45;;;8.80;91.50;;;;;;5076190;28;20036;-46
2023/04/23 01:47:29;;;;;;;14.57;12.65;;;8.80;91.40;;;;;;5081797;28;20070;-45
2023/04/23 01:49:57;;;;;;;15.68;11.63;;;8.70;91.40;;;;;;5080656;28;20085;-45
2023/04/23 01:52:25;;;;;;;18.20;13.35;;;8.80;91.60;;;;;;5084359;28;20032;-45
2023/04/23 01:54:52;;;;;;;14.85;13.10;;;8.80;91.50;;;;;;5083415;28;20028;-46
2023/04/23 01:57:23;;;;;;;19.90;14.25;;;8.80;91.70;;;;;;5081095;28;20107;-45
2023/04/23 01:59:49;;;;;;;15.10;13.07;;;8.80;91.80;;;;;;5076245;28;20040;-44
2023/04/23 02:02:20;;;;;;;16.95;14.35;;;8.80;91.70;;;;;;5057925;28;20131;-45
2023/04/23 02:04:48;;;;;;;18.23;14.20;;;8.90;91.80;;;;;;5088183;28;20460;-45
2023/04/23 02:07:15;;;;;;;17.98;14.55;;;8.90;91.60;;;;;;5092699;28;20463;-46
2023/04/23 02:09:42;;;;;;;16.58;14.70;;;8.80;91.50;;;;;;5096022;28;20028;-45
2023/04/23 02:12:08;;;;;;;21.23;15.93;;;8.80;91.70;;;;;;5075393;28;20058;-44
2023/04/23 02:14:40;;;;;;;18.52;14.18;;;8.80;91.60;;;;;;5094620;28;20024;-45
2023/04/23 02:17:06;;;;;;;20.10;14.35;;;8.80;91.70;;;;;;5078068;28;20031;-45
2023/04/23 02:19:36;;;;;;;17.30;13.80;;;8.80;91.70;;;;;;5086046;28;20052;-45
2023/04/23 02:22:06;;;;;;;20.15;14.73;;;8.80;91.70;;;;;;5090063;28;20032;-45
2023/04/23 02:24:33;;;;;;;19.00;14.70;;;8.80;91.80;;;;;;5079351;28;20036;-46
2023/04/23 02:27:01;;;;;;;18.17;13.65;;;8.80;91.80;;;;;;5077809;28;20647;-45
2023/04/23 02:29:27;;;;;;;18.30;14.82;;;8.80;91.70;;;;;;5076535;28;20028;-45
2023/04/23 02:31:55;;;;;;;15.43;12.38;;;8.80;91.70;;;;;;5090755;28;20020;-45
2023/04/23 02:34:22;;;;;;;16.98;13.65;;;8.80;91.60;;;;;;5081513;28;20446;-46
2023/04/23 02:36:52;;;;;;;20.80;14.85;;;8.70;91.60;;;;;;5076100;28;20020;-45
2023/04/23 02:39:22;;;;;;;16.52;13.82;;;8.70;91.50;;;;;;5093609;28;20032;-45
2023/04/23 02:41:49;;;;;;;;;;;8.70;91.60;;;;;;5082316;28;20457;-44
2023/04/23 02:44:17;;;;;;;20.05;14.93;;;8.70;91.60;;;;;;5095217;28;19912;-45
2023/04/23 02:46:47;;;;;;;18.25;15.05;;;8.70;91.70;;;;;;5092013;28;20157;-45
2023/04/23 02:49:16;;;;;;;19.25;15.07;;;8.70;91.60;;;;;;5084668;28;20461;-48
2023/04/23 02:51:46;;;;;;;23.37;16.00;;;8.70;91.70;;;;;;5094151;28;20039;-45
2023/04/23 02:54:13;;;;;;;22.38;18.05;;;8.60;91.70;;;;;;5095165;28;20043;-46
2023/04/23 02:56:41;;;;;;;23.40;15.77;;;8.60;91.80;;;;;;5090551;28;20028;-50
2023/04/23 02:59:09;;;;;;;21.92;16.23;;;8.60;91.90;;;;;;5074340;28;20039;-47
2023/04/23 03:01:37;;;;;;;23.17;16.95;;;8.60;91.70;;;;;;5074310;28;20085;-46
2023/04/23 03:04:04;;;;;;;20.30;16.30;;;8.60;91.60;;;;;;5093864;28;20468;-45
2023/04/23 03:06:33;;;;;;;21.75;18.10;;;8.60;91.70;;;;;;5092602;28;20032;-45
2023/04/23 03:09:01;;;;;;;18.73;16.33;;;8.50;91.60;;;;;;5075830;28;20028;-45
2023/04/23 03:11:26;;;;;;;23.02;15.80;;;8.50;91.50;;;;;;5080277;28;20529;-44
2023/04/23 03:13:53;;;;;;;18.83;16.45;;;8.50;91.50;;;;;;5092069;28;20038;-47
2023/04/23 03:16:22;;;;;;;20.67;16.75;;;8.40;91.60;;;;;;5092501;28;20035;-46
2023/04/23 03:18:48;;;;;;;19.25;16.90;;;8.40;91.40;;;;;;5094149;28;20109;-47
2023/04/23 03:21:14;;;;;;;21.77;16.63;;;8.40;91.70;;;;;;5079326;28;20574;-47
2023/04/23 03:23:42;;;;;;;23.77;17.42;;;8.40;91.70;;;;;;5090548;28;20040;-48
2023/04/23 03:26:11;;;;;;;23.60;17.30;;;8.30;91.70;;;;;;5071574;28;20046;-44
2023/04/23 03:28:40;;;;;;;25.20;19.95;;;8.30;91.70;;;;;;5073878;28;20111;-47
2023/04/23 03:31:07;;;;;;;21.50;18.00;;;8.30;91.80;;;;;;5055536;28;20051;-49
2023/04/23 03:33:33;;;;;;;19.05;16.35;;;8.20;91.70;;;;;;5089493;28;20161;-45
2023/04/23 03:36:02;;;;;;;21.50;17.05;;;8.20;91.60;;;;;;5074849;28;20036;-45
2023/04/23 03:38:28;;;;;;;23.35;18.10;;;8.20;91.60;;;;;;5086245;28;20085;-45
2023/04/23 03:40:58;;;;;;;21.35;17.13;;;8.10;91.50;;;;;;5088321;28;20032;-46
2023/04/23 03:43:26;;;;;;;24.48;18.55;;;8.10;91.60;;;;;;5087841;28;20457;-46
2023/04/23 03:45:53;;;;;;;22.75;18.27;;;8.10;91.70;;;;;;5086325;28;20116;-46
2023/04/23 03:48:21;;;;;;;23.23;18.20;;;8.00;91.70;;;;;;5073775;28;20020;-45
2023/04/23 03:50:49;;;;;;;25.35;19.90;;;8.00;91.70;;;;;;5078651;28;20016;-46
2023/04/23 03:53:20;;;;;;;28.80;20.95;;;8.00;91.80;;;;;;5086682;28;20093;-45
2023/04/23 03:55:49;;;;;;;32.15;21.77;;;8.00;91.90;;;;;;5094030;28;20044;-45
2023/04/23 03:58:16;;;;;;;27.25;20.33;;;8.00;92.00;;;;;;5088976;28;20071;-46
2023/04/23 04:00:44;;;;;;;29.75;23.10;;;8.10;92.00;;;;;;5060155;28;20683;-46
2023/04/23 04:03:11;;;;;;;28.98;23.17;;;8.00;92.00;;;;;;5093004;28;20059;-45
2023/04/23 04:05:40;;;;;;;28.88;21.70;;;8.00;91.90;;;;;;5059065;28;20047;-45
2023/04/23 04:08:08;;;;;;;30.23;23.73;;;8.00;91.90;;;;;;5081380;28;20032;-48
2023/04/23 04:10:35;;;;;;;28.75;22.95;;;8.00;91.90;;;;;;5074519;28;20028;-45
2023/04/23 04:13:01;;;;;;;32.45;23.45;;;8.00;92.10;;;;;;5093539;28;20035;-48
2023/04/23 04:15:28;;;;;;;28.00;21.98;;;8.00;91.90;;;;;;5079778;28;20076;-46
2023/04/23 04:17:58;;;;;;;35.15;24.95;;;7.90;92.00;;;;;;5055210;28;20052;-44
2023/04/23 04:20:24;;;;;;;35.08;26.98;;;8.00;92.00;;;;;;5055385;28;20200;-48
2023/04/23 04:22:52;;;;;;;36.55;27.10;;;7.90;91.90;;;;;;5075501;28;20477;-51
2023/04/23 04:25:21;;;;;;;36.58;27.02;;;8.00;92.00;;;;;;5077881;28;20028;-50
2023/04/23 04:27:48;;;;;;;40.10;28.00;;;7.90;92.10;;;;;;5072858;28;20345;-45
2023/04/23 04:30:17;;;;;;;34.88;26.35;;;8.00;92.20;;;;;;5072634;28;20012;-48
2023/04/23 04:32:49;;;;;;;35.65;28.42;;;8.00;92.20;;;;;;5072649;28;20442;-46
2023/04/23 04:35:19;;;;;;;33.75;27.52;;;8.00;92.20;;;;;;5061186;28;20059;-47
2023/04/23 04:37:46;;;;;;;37.22;28.55;;;8.10;92.30;;;;;;5056951;28;20036;-46
2023/04/23 04:40:18;;;;;;;35.45;28.02;;;8.10;92.20;;;;;;5091532;28;20032;-44
2023/04/23 04:42:46;;;;;;;37.42;26.75;;;8.10;92.10;;;;;;5092815;28;20044;-45
2023/04/23 04:45:13;;;;;;;36.33;26.55;;;8.10;92.10;;;;;;5090565;28;20047;-46
2023/04/23 04:47:39;;;;;;;36.08;26.90;;;8.10;92.10;;;;;;5085102;28;20020;-46
2023/04/23 04:50:06;;;;;;;32.78;26.85;;;8.10;92.10;;;;;;5083524;28;20445;-47
2023/04/23 04:52:36;;;;;;;33.17;26.40;;;8.10;92.10;;;;;;5082328;28;20047;-46
2023/04/23 04:55:06;;;;;;;41.25;29.88;;;8.20;92.10;;;;;;5063935;28;20028;-47
2023/04/23 04:57:32;;;;;;;40.33;28.00;;;8.20;92.10;;;;;;5058393;28;20097;-49
2023/04/23 05:00:29;;;;;;;37.47;29.33;;;8.20;92.00;;;;;;5082498;28;20082;-45
2023/04/23 05:02:57;;;;;;;37.90;29.02;;;8.30;92.20;;;;;;5086008;28;20042;-46
2023/04/23 05:05:26;;;;;;;40.75;29.42;;;8.30;92.10;;;;;;5082491;28;20032;-46
2023/04/23 05:07:53;;;;;;;42.05;30.88;;;8.30;92.10;;;;;;5049558;28;20044;-48
2023/04/23 05:10:21;;;;;;;42.65;30.50;;;8.30;92.10;;;;;;5072372;28;20027;-47
2023/04/23 05:12:50;;;;;;;37.67;28.70;;;8.30;92.10;;;;;;5088556;28;20032;-46
2023/04/23 05:15:19;;;;;;;40.47;30.52;;;8.30;92.20;;;;;;5084747;28;20107;-46
2023/04/23 05:17:52;;;;;;;38.92;30.98;;;8.40;92.20;;;;;;5088915;28;20377;-46
2023/04/23 05:20:19;;;;;;;44.28;31.83;;;8.40;92.10;;;;;;5081743;28;20335;-46
2023/04/23 05:22:46;;;;;;;43.58;30.95;;;8.40;92.10;;;;;;5077740;28;20044;-46
2023/04/23 05:25:13;;;;;;;39.55;30.02;;;8.40;92.20;;;;;;5090250;28;20334;-49
2023/04/23 05:27:40;;;;;;;41.15;31.48;;;8.50;92.10;;;;;;5069502;28;20032;-46
2023/04/23 05:30:12;;;;;;;42.50;31.65;;;8.50;92.00;;;;;;5070988;28;20369;-46
2023/04/23 05:32:38;;;;;;;42.80;32.38;;;8.60;92.10;;;;;;5090200;28;20024;-46
2023/04/23 05:35:05;;;;;;;35.88;28.80;;;8.60;91.90;;;;;;5072594;28;20043;-47
2023/04/23 05:37:36;;;;;;;42.15;31.30;;;8.60;91.90;;;;;;5078920;28;20044;-46
2023/04/23 05:40:06;;;;;;;35.65;29.02;;;8.70;91.90;;;;;;5091879;28;20028;-48
2023/04/23 05:42:36;;;;;;;40.35;30.95;;;8.60;91.70;;;;;;5086180;28;20028;-45
2023/04/23 05:45:03;;;;;;;39.83;29.15;;;8.70;91.70;;;;;;5071062;28;20512;-46
2023/04/23 05:47:30;;;;;;;42.15;32.17;;;8.90;92.30;;;;;;5061210;28;20040;-45
2023/04/23 05:49:57;;;;;;;42.50;30.38;;;9.00;92.30;;;;;;5092101;28;20026;-46
2023/04/23 05:52:23;;;;;;;42.28;31.90;;;8.90;91.60;;;;;;5073680;28;20500;-46
2023/04/23 05:54:51;;;;;;;39.33;30.00;;;8.90;91.40;;;;;;5057695;28;20020;-45
2023/04/23 05:57:17;;;;;;;47.28;34.15;;;8.90;91.30;;;;;;5064027;28;20354;-44
2023/04/23 05:59:45;;;;;;;44.13;32.17;;;8.90;91.00;;;;;;5068032;28;20040;-47
2023/04/23 06:02:13;;;;;;;42.63;33.55;;;8.90;90.80;;;;;;5088427;28;20032;-45
2023/04/23 06:04:40;;;;;;;43.88;32.65;;;8.90;91.00;;;;;;5089918;28;20028;-47
2023/04/23 06:07:06;;;;;;;46.90;35.35;;;8.90;91.10;;;;;;5089792;28;20346;-45
2023/04/23 06:09:33;;;;;;;44.65;34.25;;;9.00;91.20;;;;;;5061703;28;20032;-44
2023/04/23 06:12:02;;;;;;;42.97;32.35;;;8.90;91.00;;;;;;5070020;28;20453;-48
2023/04/23 06:14:31;;;;;;;47.58;34.30;;;8.90;91.00;;;;;;5072914;28;20350;-46
2023/04/23 06:16:58;;;;;;;45.92;33.78;;;8.90;90.90;;;;;;5084261;28;20028;-44
2023/04/23 06:19:26;;;;;;;44.25;34.40;;;8.90;91.00;;;;;;5082934;28;20067;-44
2023/04/23 06:21:55;;;;;;;46.10;35.53;;;9.00;91.10;;;;;;5083092;28;20035;-44
2023/04/23 06:24:23;;;;;;;50.53;36.72;;;9.00;91.30;;;;;;5077317;28;20527;-45
2023/04/23 06:26:50;;;;;;;47.83;35.40;;;9.10;91.20;;;;;;5093239;28;20541;-47
2023/04/23 06:29:18;;;;;;;47.30;35.88;;;9.20;91.10;;;;;;5094320;28;20036;-45
2023/04/23 06:31:46;;;;;;;41.90;33.00;;;9.30;91.00;;;;;;5087027;28;20023;-47
2023/04/23 06:34:15;;;;;;;47.47;34.05;;;9.30;90.80;;;;;;5067093;28;20020;-47
2023/04/23 06:36:43;;;;;;;45.92;34.55;;;9.40;91.00;;;;;;5069154;28;20036;-44
2023/04/23 06:39:10;;;;;;;45.63;34.80;;;9.40;90.40;;;;;;5076199;28;20043;-44
2023/04/23 06:41:37;;;;;;;41.90;34.28;;;9.40;90.60;;;;;;5091535;28;20032;-45
2023/04/23 06:44:06;;;;;;;41.22;32.83;;;9.40;90.40;;;;;;5082806;28;20052;-48
2023/04/23 06:46:32;;;;;;;44.60;33.33;;;9.40;90.40;;;;;;5088403;28;20028;-45
2023/04/23 06:49:03;;;;;;;46.97;34.90;;;9.40;90.50;;;;;;5094756;28;20178;-43
2023/04/23 06:51:31;;;;;;;46.35;34.88;;;9.40;90.40;;;;;;5089096;28;20024;-44
2023/04/23 06:53:57;;;;;;;50.17;36.63;;;9.50;90.40;;;;;;5092933;28;20042;-44
2023/04/23 06:56:26;;;;;;;50.72;37.33;;;9.60;90.40;;;;;;5094349;28;20449;-43
2023/04/23 06:58:53;;;;;;;51.83;37.17;;;9.70;90.40;;;;;;5086176;28;20382;-44
2023/04/23 07:01:21;;;;;;;45.22;34.88;;;9.90;90.90;;;;;;5086314;28;20093;-45
2023/04/23 07:03:50;;;;;;;54.67;38.45;;;10.00;89.90;;;;;;5088767;28;20032;-44
2023/04/23 07:06:20;;;;;;;46.97;36.65;;;10.00;89.90;;;;;;5074681;28;20031;-43
2023/04/23 07:08:47;;;;;;;51.35;39.85;;;10.20;90.10;;;;;;5074114;28;20036;-43
2023/04/23 07:11:16;;;;;;;48.13;37.45;;;10.30;90.00;;;;;;5074275;28;20020;-44
2023/04/23 07:13:45;;;;;;;49.42;38.58;;;10.40;89.90;;;;;;5057141;28;20056;-43
2023/04/23 07:16:12;;;;;;;51.60;39.42;;;10.40;89.80;;;;;;5082946;28;20369;-43
2023/04/23 07:18:43;;;;;;;47.13;37.50;;;10.50;89.70;;;;;;5093763;28;20058;-42
2023/04/23 07:21:09;;;;;;;50.75;36.35;;;10.70;89.40;;;;;;5085736;28;20028;-46
2023/04/23 07:23:37;;;;;;;45.85;36.47;;;10.80;89.50;;;;;;5074240;28;20043;-43
2023/04/23 07:26:04;;;;;;;47.10;38.38;;;10.90;89.10;;;;;;5065802;28;20519;-44
2023/04/23 07:28:29;;;;;;;49.08;38.92;;;11.00;88.40;;;;;;5074668;28;20020;-43
2023/04/23 07:30:58;;;;;;;50.13;38.50;;;11.20;88.90;;;;;;5075368;28;20020;-43
2023/04/23 07:33:25;;;;;;;46.47;38.33;;;11.40;88.00;;;;;;5077052;28;20028;-42
2023/04/23 07:36:01;;;;;;;45.25;37.50;;;11.70;88.10;;;;;;5039680;28;20024;-42
2023/04/23 07:38:30;;;;;;;41.88;36.20;;;12.00;86.90;;;;;;5087615;28;20354;-45
2023/04/23 07:40:56;;;;;;;42.83;36.17;;;12.20;85.40;;;;;;5093550;28;20055;-43
2023/04/23 07:43:22;;;;;;;43.05;37.40;;;12.40;85.20;;;;;;5093737;28;20028;-42
2023/04/23 07:45:50;;;;;;;44.13;37.80;;;12.60;83.50;;;;;;5086116;28;20040;-43
2023/04/23 07:48:16;;;;;;;48.03;38.05;;;12.80;83.20;;;;;;5073492;28;20416;-44
2023/04/23 07:50:44;;;;;;;41.90;36.67;;;12.70;83.10;;;;;;5072287;28;20078;-45
2023/04/23 07:53:11;;;;;;;44.40;37.30;;;12.90;82.80;;;;;;5071398;28;20028;-44
2023/04/23 07:55:38;;;;;;;43.95;38.10;;;13.00;82.50;;;;;;5073716;28;20103;-43
2023/04/23 07:58:08;;;;;;;46.28;39.88;;;13.00;81.50;;;;;;5072777;28;20093;-43
2023/04/23 08:00:38;;;;;;;41.97;37.35;;;13.10;81.70;;;;;;5072560;28;20074;-45
2023/04/23 08:03:06;;;;;;;42.53;37.42;;;13.20;81.60;;;;;;5072357;28;20029;-44
2023/04/23 08:05:33;;;;;;;40.33;35.63;;;13.40;81.10;;;;;;5078130;28;20036;-45
2023/04/23 08:08:00;;;;;;;41.33;36.35;;;13.40;81.20;;;;;;5072878;28;20454;-49
2023/04/23 08:10:28;;;;;;;43.42;38.72;;;13.40;81.10;;;;;;5072937;28;20028;-43
2023/04/23 08:12:56;;;;;;;40.45;36.10;;;13.40;80.00;;;;;;5072740;28;20028;-46
2023/04/23 08:15:21;;;;;;;42.05;36.97;;;13.40;80.40;;;;;;5055635;28;20486;-46
2023/04/23 08:17:49;;;;;;;40.83;34.53;;;13.50;80.30;;;;;;5072607;28;20108;-44
2023/04/23 08:20:18;;;;;;;40.72;34.58;;;13.90;79.60;;;;;;5072819;28;20028;-46
2023/04/23 08:22:45;;;;;;;39.35;34.88;;;13.60;77.60;;;;;;5080375;28;20028;-46
2023/04/23 08:25:12;;;;;;;39.30;35.13;;;13.90;78.90;;;;;;5074948;28;20614;-44
2023/04/23 08:27:40;;;;;;;41.42;35.38;;;14.30;77.00;;;;;;5083310;28;20040;-46
2023/04/23 08:30:07;;;;;;;41.47;36.65;;;14.90;75.60;;;;;;5073017;28;20017;-47
2023/04/23 08:32:40;;;;;;;40.10;33.60;;;15.20;72.60;;;;;;5072685;28;20525;-45
2023/04/23 08:35:07;;;;;;;39.15;35.05;;;15.40;71.50;;;;;;5073129;28;20024;-46
2023/04/23 08:37:34;;;;;;;38.50;34.15;;;15.80;72.60;;;;;;5071352;28;20039;-44
2023/04/23 08:40:05;;;;;;;34.25;30.77;;;15.90;69.60;;;;;;5085556;28;20373;-44
2023/04/23 08:42:52;;;;;;;31.77;28.38;;;16.40;68.30;;;;;;5081357;28;20361;-47
2023/04/23 08:45:18;;;;;;;35.78;32.10;;;16.60;66.10;;;;;;5073775;28;20036;-45
2023/04/23 08:47:45;;;;;;;36.85;32.50;;;16.60;66.70;;;;;;5092441;28;20036;-45
2023/04/23 08:50:16;;;;;;;34.75;31.15;;;16.80;64.60;;;;;;5056314;28;20086;-45
2023/04/23 08:52:57;;;;;;;35.65;31.85;;;16.80;63.50;;;;;;5090930;28;20093;-46
2023/04/23 08:55:27;;;;;;;37.13;33.47;;;16.80;64.20;;;;;;5091390;28;20497;-44
2023/04/23 08:57:53;;;;;;;37.75;33.78;;;16.70;64.90;;;;;;5055569;28;20135;-49
2023/04/23 09:00:25;;;;;;;35.90;31.98;;;16.80;64.90;;;;;;5074421;28;20100;-48
2023/04/23 09:02:52;;;;;;;35.50;31.90;;;17.10;65.10;;;;;;5084903;28;20346;-49
2023/04/23 09:05:19;;;;;;;36.60;32.83;;;17.40;63.20;;;;;;5092228;28;20028;-44
2023/04/23 09:07:45;;;;;;;34.92;31.38;;;17.70;62.30;;;;;;5073185;28;20081;-45
2023/04/23 09:10:13;;;;;;;33.60;30.05;;;17.90;60.60;;;;;;5092406;28;20099;-48
2023/04/23 09:12:47;;;;;;;32.33;29.17;;;17.90;59.20;;;;;;5089218;28;20425;-47
2023/04/23 09:15:14;;;;;;;31.88;28.77;;;17.90;60.60;;;;;;5081358;28;20059;-45
2023/04/23 09:17:45;;;;;;;31.50;28.38;;;17.90;60.40;;;;;;5072070;28;20362;-45
2023/04/23 09:20:14;;;;;;;28.83;25.83;;;17.90;60.80;;;;;;5079389;28;20442;-44
2023/04/23 09:23:08;;;;;;;29.40;26.45;;;17.80;59.70;;;;;;5087823;28;20455;-45
2023/04/23 09:25:35;;;;;;;30.65;27.65;;;18.10;60.20;;;;;;5073068;28;20115;-46
2023/04/23 09:28:07;;;;;;;29.60;26.65;;;18.40;60.00;;;;;;5072692;28;20039;-45
2023/04/23 09:30:44;;;;;;;29.85;26.90;;;18.50;57.90;;;;;;5059343;28;20032;-46
2023/04/23 09:33:12;;;;;;;29.58;26.45;;;18.40;57.80;;;;;;5084662;28;20054;-45
2023/04/23 09:35:41;;;;;;;29.63;26.63;;;18.40;58.30;;;;;;5080187;28;20059;-48
2023/04/23 09:38:09;;;;;;;29.25;26.45;;;18.40;58.00;;;;;;5073420;28;20062;-46
2023/04/23 09:40:38;;;;;;;28.85;26.05;;;18.20;57.80;;;;;;5054955;28;20040;-46
2023/04/23 09:43:06;;;;;;;26.85;24.15;;;18.20;58.00;;;;;;5087661;28;20467;-48
2023/04/23 09:45:34;;;;;;;27.08;24.35;;;18.50;59.20;;;;;;5077236;28;20044;-46
2023/04/23 09:48:01;;;;;;;26.88;24.08;;;18.60;55.70;;;;;;5080558;28;21049;-46
2023/04/23 09:50:42;;;;;;;25.15;22.70;;;18.40;57.20;;;;;;5063505;28;20434;-47
2023/04/23 09:53:08;;;;;;;24.83;22.42;;;18.60;57.90;;;;;;5068808;28;20445;-48
2023/04/23 09:55:42;;;;;;;26.95;24.27;;;18.90;56.50;;;;;;5086548;28;20024;-46
2023/04/23 09:58:14;;;;;;;22.13;19.98;;;18.70;57.10;;;;;;5076471;28;20024;-47
2023/04/23 10:00:42;;;;;;;22.88;20.48;;;18.70;56.50;;;;;;5057650;28;20032;-48
2023/04/23 10:03:10;;;;;;;21.40;19.33;;;18.90;56.00;;;;;;5069715;28;20029;-45
2023/04/23 10:05:43;;;;;;;19.90;17.90;;;19.10;54.20;;;;;;5082452;28;20111;-46
2023/04/23 10:08:21;;;;;;;21.77;19.30;;;19.10;53.70;;;;;;5067983;28;20464;-47
2023/04/23 10:10:48;;;;;;;18.85;16.95;;;19.10;54.00;;;;;;5093333;28;20039;-47
2023/04/23 10:13:15;;;;;;;20.20;18.30;;;19.50;54.20;;;;;;5091213;28;20054;-48
2023/04/23 10:15:47;;;;;;;20.60;18.60;;;19.70;53.60;;;;;;5084236;28;20072;-47
2023/04/23 10:18:15;;;;;;;19.20;17.40;;;19.70;53.00;;;;;;5089715;28;20432;-46
2023/04/23 10:20:44;;;;;;;22.08;20.00;;;19.80;54.60;;;;;;5094135;28;20032;-49
2023/04/23 10:23:12;;;;;;;20.05;18.05;;;19.80;53.50;;;;;;5076096;28;20036;-45
2023/04/23 10:25:41;;;;;;;20.83;18.80;;;19.80;52.40;;;;;;5056484;28;20077;-47
2023/04/23 10:28:25;;;;;;;18.48;16.70;;;19.60;54.50;;;;;;5063553;28;20102;-46
2023/04/23 10:30:53;;;;;;;17.42;15.80;;;19.40;52.40;;;;;;5062466;28;20268;-46
2023/04/23 10:33:22;;;;;;;18.27;16.55;;;19.20;55.10;;;;;;5066782;28;20020;-46
2023/04/23 10:35:48;;;;;;;18.88;15.85;;;19.30;56.00;;;;;;5061729;28;20396;-46
2023/04/23 10:38:16;;;;;;;20.25;18.38;;;19.20;55.20;;;;;;5084235;28;20030;-47
2023/04/23 10:40:45;;;;;;;17.55;15.82;;;19.10;55.30;;;;;;5060695;28;20029;-47
2023/04/23 10:43:12;;;;;;;19.80;17.80;;;18.90;57.10;;;;;;5073125;28;20040;-46
2023/04/23 10:45:39;;;;;;;19.52;17.63;;;19.10;57.40;;;;;;5087045;28;20025;-46
2023/04/23 10:48:05;;;;;;;19.45;17.55;;;19.20;56.60;;;;;;5074348;28;20087;-45
2023/04/23 10:50:36;;;;;;;19.98;18.02;;;19.30;58.90;;;;;;5074581;28;20024;-46
2023/04/23 10:53:06;;;;;;;20.30;16.05;;;19.50;58.30;;;;;;5074465;28;20020;-46
2023/04/23 10:55:31;;;;;;;18.05;16.27;;;19.30;57.50;;;;;;5092773;28;20074;-46
2023/04/23 10:58:16;;;;;;;18.52;16.67;;;19.30;59.00;;;;;;5094304;28;20060;-46
2023/04/23 11:01:04;;;;;;;20.83;17.13;;;19.40;58.60;;;;;;5089770;28;20040;-46
2023/04/23 11:03:41;;;;;;;18.52;16.40;;;18.80;57.70;;;;;;5074007;28;20392;-45
2023/04/23 11:06:11;;;;;;;21.35;19.25;;;18.60;60.50;;;;;;5074464;28;20039;-46
2023/04/23 11:08:53;;;;;;;18.73;16.95;;;18.70;60.70;;;;;;5067552;28;21633;-49
2023/04/23 11:11:42;;;;;;;21.25;19.05;;;19.00;58.60;;;;;;5069894;28;20153;-45
2023/04/23 11:14:16;;;;;;;19.27;17.38;;;19.20;57.80;;;;;;5070781;28;20089;-46
2023/04/23 11:16:44;;;;;;;18.65;16.75;;;19.40;57.90;;;;;;5068606;28;20078;-47
2023/04/23 11:19:15;;;;;;;18.52;16.75;;;19.40;60.90;;;;;;5088867;28;20051;-46
2023/04/23 11:22:12;;;;;;;19.00;17.10;;;19.60;60.40;;;;;;5084866;28;20100;-51
2023/04/23 11:24:44;;;;;;;18.77;16.80;;;19.70;57.90;;;;;;5070068;28;20600;-47
2023/04/23 11:27:18;;;;;;;19.60;17.77;;;19.30;59.30;;;;;;5095138;28;20365;-46
2023/04/23 11:29:50;;;;;;;20.08;17.98;;;19.10;61.40;;;;;;5101574;28;20093;-45
2023/04/23 11:32:16;;;;;;;19.63;17.63;;;19.20;60.70;;;;;;5092859;28;20024;-48
2023/04/23 11:34:49;;;;;;;20.55;17.88;;;18.90;61.10;;;;;;5063289;28;20120;-46
2023/04/23 11:37:17;;;;;;;18.52;16.73;;;18.60;61.10;;;;;;5064470;28;20113;-46
2023/04/23 11:39:46;;;;;;;17.33;15.63;;;18.40;61.20;;;;;;5055237;28;20458;-47
2023/04/23 11:42:30;;;;;;;18.38;16.73;;;18.40;62.80;;;;;;5089054;28;20040;-47
2023/04/23 11:44:57;;;;;;;17.58;15.88;;;18.20;64.40;;;;;;5083449;28;20044;-50
2023/04/23 11:47:27;;;;;;;18.15;16.27;;;18.30;64.20;;;;;;5089182;28;20028;-46
2023/04/23 11:49:56;;;;;;;16.70;15.10;;;18.10;64.50;;;;;;5083536;28;20024;-47
2023/04/23 11:52:25;;;;;;;13.93;11.93;;;18.00;62.60;;;;;;5083599;28;20039;-47
2023/04/23 11:54:52;;;;;;;15.20;13.67;;;18.20;64.20;;;;;;5093390;28;20077;-46
2023/04/23 11:57:17;;;;;;;13.30;12.02;;;18.50;64.60;;;;;;5093491;28;20269;-47
2023/04/23 11:59:44;;;;;;;12.43;11.00;;;18.90;62.50;;;;;;5084210;28;20028;-46
2023/04/23 12:02:11;;;;;;;13.07;11.55;;;19.40;63.20;;;;;;5073152;28;20044;-46
2023/04/23 12:04:42;;;;;;;14.98;13.45;;;19.90;62.10;;;;;;5087838;28;20024;-48
2023/04/23 12:07:10;;;;;;;14.85;13.27;;;19.80;59.50;;;;;;5069459;28;20040;-47
2023/04/23 12:09:39;;;;;;;15.48;13.98;;;19.70;59.50;;;;;;5082499;28;20067;-46
2023/04/23 12:12:08;;;;;;;15.93;14.00;;;19.60;60.00;;;;;;5091160;28;20035;-48
2023/04/23 12:14:39;;;;;;;17.15;15.45;;;19.70;60.80;;;;;;5079878;28;20036;-46
2023/04/23 12:17:10;;;;;;;16.23;14.63;;;19.80;60.30;;;;;;5091960;28;20403;-48
2023/04/23 12:19:39;;;;;;;16.38;14.00;;;19.60;60.60;;;;;;5073519;28;20040;-45
2023/04/23 12:22:07;;;;;;;14.50;12.27;;;19.80;61.20;;;;;;5082693;28;20028;-47
2023/04/23 12:24:50;;;;;;;12.60;11.35;;;19.90;60.80;;;;;;5084590;28;20031;-50
2023/04/23 12:27:22;;;;;;;13.98;10.98;;;20.20;59.50;;;;;;5073999;28;20041;-48
2023/04/23 12:29:58;;;;;;;14.45;10.18;;;20.50;56.90;;;;;;5075031;28;20024;-45
2023/04/23 12:32:26;;;;;;;11.50;9.80;;;20.30;56.40;;;;;;5047366;28;20469;-46
2023/04/23 12:34:55;;;;;;;9.80;8.15;;;20.10;57.70;;;;;;5073458;28;20036;-45
2023/04/23 12:37:27;;;;;;;12.18;8.73;;;19.70;57.30;;;;;;5070385;28;20039;-46
2023/04/23 12:39:57;;;;;;;11.77;9.82;;;19.10;58.00;;;;;;5053237;28;20036;-47
2023/04/23 12:42:26;;;;;;;13.00;10.23;;;19.00;60.90;;;;;;5079868;28;20040;-46
2023/04/23 12:45:06;;;;;;;9.23;7.15;;;19.30;60.30;;;;;;5074468;28;20392;-46